createdAt,value
2019-03-05T00:00:56.941Z,7.79
2019-03-05T00:01:57.033Z,7.75
2019-03-05T00:02:57.120Z,7.79
2019-03-05T00:03:57.210Z,7.67
2019-03-05T00:04:57.302Z,7.75
2019-03-05T00:05:57.390Z,7.66
2019-03-05T00:06:57.478Z,7.74
2019-03-05T00:07:57.567Z,7.74
2019-03-05T00:08:57.650Z,7.82
2019-03-05T00:09:57.778Z,7.78
2019-03-05T00:10:57.831Z,7.81
2019-03-05T00:11:57.935Z,7.63
2019-03-05T00:12:58.027Z,7.66
2019-03-05T00:13:58.115Z,7.62
2019-03-05T00:14:58.205Z,7.69
2019-03-05T00:15:58.296Z,7.62
2019-03-05T00:16:58.389Z,7.71
2019-03-05T00:17:58.484Z,7.85
2019-03-05T00:18:58.569Z,7.82
2019-03-05T00:19:58.656Z,7.89
2019-03-05T00:20:58.747Z,7.82
2019-03-05T00:21:58.844Z,7.82
2019-03-05T00:22:58.955Z,7.93
2019-03-05T00:23:59.016Z,7.89
2019-03-05T00:24:59.110Z,7.99
2019-03-05T00:25:59.201Z,7.94
2019-03-05T00:26:59.294Z,7.77
2019-03-05T00:27:59.388Z,7.84
2019-03-05T00:28:59.528Z,7.87
2019-03-05T00:29:59.580Z,7.96
2019-03-05T00:30:59.674Z,7.96
2019-03-05T00:31:59.768Z,8.03
2019-03-05T00:32:59.855Z,7.96
2019-03-05T00:33:59.945Z,7.79
2019-03-05T00:35:00.037Z,7.62
2019-03-05T00:36:00.128Z,7.77
2019-03-05T00:37:00.219Z,7.56
2019-03-05T00:38:00.306Z,7.63
2019-03-05T00:39:00.395Z,7.67
2019-03-05T00:40:00.484Z,7.69
2019-03-05T00:41:00.574Z,7.72
2019-03-05T00:42:00.662Z,7.66
2019-03-05T00:43:00.747Z,7.53
2019-03-05T00:44:00.834Z,7.59
2019-03-05T00:45:00.951Z,7.58
2019-03-05T00:46:01.022Z,7.59
2019-03-05T00:47:01.110Z,7.72
2019-03-05T00:48:01.200Z,7.66
2019-03-05T00:49:01.294Z,7.75
2019-03-05T00:50:01.388Z,7.75
2019-03-05T00:51:01.478Z,7.75
2019-03-05T00:52:01.570Z,7.82
2019-03-05T00:53:01.673Z,7.81
2019-03-05T00:54:01.768Z,7.74
2019-03-05T00:55:01.860Z,7.60
2019-03-05T00:56:01.954Z,7.75
2019-03-05T00:57:02.039Z,7.75
2019-03-05T00:58:02.131Z,7.87
2019-03-05T00:59:02.224Z,7.85
2019-03-05T01:00:02.319Z,7.81
2019-03-05T01:01:02.406Z,7.85
2019-03-05T01:02:02.494Z,7.67
2019-03-05T01:03:02.585Z,7.66
2019-03-05T01:04:02.674Z,7.67
2019-03-05T01:05:02.766Z,7.81
2019-03-05T01:06:02.871Z,7.66
2019-03-05T01:07:02.940Z,7.71
2019-03-05T01:08:03.031Z,7.78
2019-03-05T01:09:03.140Z,7.78
2019-03-05T01:10:03.232Z,7.67
2019-03-05T01:11:03.324Z,7.82
2019-03-05T01:12:03.414Z,7.81
2019-03-05T01:13:03.534Z,7.90
2019-03-05T01:14:03.604Z,7.82
2019-03-05T01:15:03.692Z,7.93
2019-03-05T01:16:03.783Z,7.77
2019-03-05T01:17:03.870Z,7.81
2019-03-05T01:18:03.956Z,7.81
2019-03-05T01:19:04.050Z,7.85
2019-03-05T01:20:04.145Z,7.82
2019-03-05T01:21:04.238Z,7.82
2019-03-05T01:22:04.328Z,7.79
2019-03-05T01:23:04.421Z,7.85
2019-03-05T01:24:04.509Z,7.85
2019-03-05T01:25:04.601Z,7.78
2019-03-05T01:26:04.701Z,7.81
2019-03-05T01:27:04.782Z,7.81
2019-03-05T01:28:04.918Z,7.72
2019-03-05T01:29:04.995Z,7.58
2019-03-05T01:30:05.084Z,7.79
2019-03-05T01:31:05.181Z,7.75
2019-03-05T01:32:05.281Z,7.69
2019-03-05T01:33:05.357Z,7.66
2019-03-05T01:34:05.448Z,7.63
2019-03-05T01:35:05.542Z,7.78
2019-03-05T01:36:05.634Z,7.79
2019-03-05T01:37:05.715Z,7.81
2019-03-05T01:38:05.804Z,7.90
2019-03-05T01:39:05.898Z,7.90
2019-03-05T01:40:05.990Z,7.82
2019-03-05T01:41:06.081Z,7.81
2019-03-05T01:42:06.172Z,7.87
2019-03-05T01:43:06.263Z,7.87
2019-03-05T01:44:06.356Z,7.84
2019-03-05T01:45:06.493Z,7.85
2019-03-05T01:46:06.539Z,7.87
2019-03-05T01:47:06.631Z,7.71
2019-03-05T01:48:06.721Z,7.71
2019-03-05T01:49:06.820Z,7.71
2019-03-05T01:50:06.903Z,7.84
2019-03-05T01:51:06.984Z,7.84
2019-03-05T01:52:07.074Z,7.77
2019-03-05T01:53:07.165Z,7.75
2019-03-05T01:54:07.251Z,7.77
2019-03-05T01:55:07.342Z,7.81
2019-03-05T01:56:07.442Z,8.00
2019-03-05T01:57:07.528Z,7.97
2019-03-05T01:58:07.649Z,8.07
2019-03-05T01:59:07.739Z,7.93
2019-03-05T02:00:07.841Z,7.74
2019-03-05T02:01:07.932Z,7.81
2019-03-05T02:02:08.020Z,7.81
2019-03-05T02:03:08.108Z,7.63
2019-03-05T02:04:08.194Z,7.63
2019-03-05T02:05:08.302Z,7.60
2019-03-05T02:06:08.373Z,7.59
2019-03-05T02:07:08.462Z,7.72
2019-03-05T02:08:08.553Z,7.79
2019-03-05T02:09:08.652Z,7.84
2019-03-05T02:10:08.749Z,7.84
2019-03-05T02:11:08.835Z,7.79
2019-03-05T02:12:08.931Z,7.78
2019-03-05T02:13:09.049Z,7.79
2019-03-05T02:14:09.138Z,7.78
2019-03-05T02:15:09.226Z,7.85
2019-03-05T02:16:09.319Z,7.97
2019-03-05T02:17:09.405Z,7.90
2019-03-05T02:18:09.496Z,7.99
2019-03-05T02:19:09.608Z,8.03
2019-03-05T02:20:09.700Z,7.93
2019-03-05T02:21:09.794Z,7.94
2019-03-05T02:22:09.879Z,7.84
2019-03-05T02:23:09.972Z,7.96
2019-03-05T02:24:10.062Z,7.82
2019-03-05T02:25:10.156Z,7.92
2019-03-05T02:26:10.247Z,7.85
2019-03-05T02:27:10.365Z,7.82
2019-03-05T02:28:10.414Z,7.72
2019-03-05T02:29:10.506Z,7.84
2019-03-05T02:30:10.592Z,7.78
2019-03-05T02:31:10.687Z,7.81
2019-03-05T02:32:10.772Z,7.81
2019-03-05T02:33:10.861Z,7.93
2019-03-05T02:34:10.938Z,7.85
2019-03-05T02:35:11.042Z,7.85
2019-03-05T02:36:11.138Z,7.85
2019-03-05T02:37:11.224Z,7.87
2019-03-05T02:38:11.330Z,7.79
2019-03-05T02:39:11.415Z,7.90
2019-03-05T02:40:11.511Z,7.94
2019-03-05T02:41:11.604Z,7.84
2019-03-05T02:42:11.688Z,7.84
2019-03-05T02:43:11.780Z,7.77
2019-03-05T02:44:11.868Z,7.74
2019-03-05T02:45:11.958Z,7.74
2019-03-05T02:46:12.108Z,7.66
2019-03-05T02:47:12.136Z,7.67
2019-03-05T02:48:12.230Z,7.60
2019-03-05T02:49:12.322Z,7.50
2019-03-05T02:50:12.409Z,7.60
2019-03-05T02:51:12.502Z,7.67
2019-03-05T02:52:12.587Z,7.74
2019-03-05T02:53:12.682Z,7.75
2019-03-05T02:54:12.784Z,7.74
2019-03-05T02:55:12.877Z,7.82
2019-03-05T02:56:12.967Z,7.90
2019-03-05T02:57:13.058Z,7.84
2019-03-05T02:58:13.141Z,7.81
2019-03-05T02:59:13.236Z,7.82
2019-03-05T03:00:13.323Z,7.82
2019-03-05T03:01:13.416Z,7.77
2019-03-05T03:02:13.600Z,7.85
2019-03-05T03:03:13.606Z,7.93
2019-03-05T03:04:13.689Z,7.93
2019-03-05T03:05:13.782Z,7.92
2019-03-05T03:06:13.871Z,7.89
2019-03-05T03:07:13.965Z,7.84
2019-03-05T03:08:14.051Z,7.90
2019-03-05T03:09:14.144Z,7.66
2019-03-05T03:10:14.244Z,7.59
2019-03-05T03:11:14.322Z,7.77
2019-03-05T03:12:14.411Z,7.79
2019-03-05T03:13:14.502Z,7.72
2019-03-05T03:14:14.592Z,7.75
2019-03-05T03:15:14.692Z,7.77
2019-03-05T03:16:14.780Z,7.85
2019-03-05T03:17:14.882Z,7.89
2019-03-05T03:18:15.064Z,7.81
2019-03-05T03:19:15.039Z,7.81
2019-03-05T03:20:15.131Z,7.78
2019-03-05T03:21:15.224Z,7.79
2019-03-05T03:22:15.308Z,7.84
2019-03-05T03:23:15.396Z,7.72
2019-03-05T03:24:15.488Z,7.58
2019-03-05T03:25:15.584Z,7.58
2019-03-05T03:26:15.662Z,7.37
2019-03-05T03:28:47.426Z,7.45
2019-03-05T03:29:47.513Z,7.49
2019-03-05T03:30:47.621Z,7.41
2019-03-05T03:31:47.812Z,7.26
2019-03-05T03:32:47.780Z,7.17
2019-03-05T03:33:47.867Z,7.13
2019-03-05T03:34:47.968Z,7.08
2019-03-05T03:35:48.047Z,7.16
2019-03-05T03:36:48.146Z,7.17
2019-03-05T03:37:48.233Z,7.02
2019-03-05T03:38:48.318Z,7.01
2019-03-05T03:39:48.409Z,7.05
2019-03-05T03:40:48.500Z,7.01
2019-03-05T03:41:48.591Z,6.99
2019-03-05T03:42:48.681Z,6.86
2019-03-05T03:43:48.763Z,6.79
2019-03-05T03:44:48.859Z,6.94
2019-03-05T03:45:48.949Z,6.90
2019-03-05T03:46:49.050Z,6.83
2019-03-05T03:47:49.125Z,6.91
2019-03-05T03:48:49.214Z,6.84
2019-03-05T03:49:49.305Z,6.84
2019-03-05T03:50:49.399Z,6.81
2019-03-05T03:51:51.451Z,6.83
2019-03-05T03:52:49.581Z,6.80
2019-03-05T03:53:49.650Z,6.77
2019-03-05T03:54:49.757Z,6.87
2019-03-05T03:55:49.845Z,6.63
2019-03-05T03:56:49.934Z,6.58
2019-03-05T03:57:50.025Z,6.61
2019-03-05T03:58:50.111Z,6.56
2019-03-05T03:59:50.198Z,6.63
2019-03-05T04:00:50.286Z,6.62
2019-03-05T04:01:50.381Z,6.59
2019-03-05T04:02:50.462Z,6.63
2019-03-05T04:03:50.550Z,6.62
2019-03-05T04:04:50.640Z,6.65
2019-03-05T04:05:50.727Z,6.66
2019-03-05T04:06:50.834Z,6.58
2019-03-05T04:07:50.914Z,6.66
2019-03-05T04:08:50.996Z,6.73
2019-03-05T04:09:51.095Z,6.77
2019-03-05T04:10:51.173Z,6.65
2019-03-05T04:11:51.266Z,6.68
2019-03-05T04:12:51.353Z,6.54
2019-03-05T04:13:51.439Z,6.46
2019-03-05T04:14:51.558Z,6.51
2019-03-05T04:15:51.622Z,6.53
2019-03-05T04:16:51.700Z,6.48
2019-03-05T04:17:51.790Z,6.68
2019-03-05T04:18:51.878Z,6.65
2019-03-05T04:19:51.973Z,6.63
2019-03-05T04:20:52.057Z,6.63
2019-03-05T04:21:52.147Z,6.65
2019-03-05T04:22:52.238Z,6.63
2019-03-05T04:23:52.349Z,6.71
2019-03-05T04:24:52.413Z,6.71
2019-03-05T04:25:52.509Z,6.66
2019-03-05T04:26:52.597Z,6.80
2019-03-05T04:27:52.689Z,6.79
2019-03-05T04:28:52.810Z,6.84
2019-03-05T04:29:52.883Z,6.77
2019-03-05T04:30:52.979Z,6.79
2019-03-05T04:31:53.062Z,6.69
2019-03-05T04:32:53.148Z,6.81
2019-03-05T04:33:53.235Z,6.80
2019-03-05T04:34:53.320Z,6.80
2019-03-05T04:35:53.409Z,6.65
2019-03-05T04:36:53.532Z,6.81
2019-03-05T04:37:53.610Z,6.80
2019-03-05T04:38:53.668Z,6.81
2019-03-05T04:39:53.805Z,6.84
2019-03-05T04:40:53.851Z,6.81
2019-03-05T04:41:53.942Z,6.76
2019-03-05T04:42:54.032Z,6.71
2019-03-05T04:43:54.119Z,6.72
2019-03-05T04:44:54.208Z,6.83
2019-03-05T04:45:54.296Z,6.65
2019-03-05T04:46:54.386Z,6.63
2019-03-05T04:47:54.477Z,6.66
2019-03-05T04:48:54.598Z,6.68
2019-03-05T04:49:54.654Z,6.62
2019-03-05T04:50:54.747Z,6.66
2019-03-05T04:51:54.833Z,6.53
2019-03-05T04:52:54.917Z,6.59
2019-03-05T04:53:55.009Z,6.62
2019-03-05T04:54:55.096Z,6.54
2019-03-05T04:55:55.185Z,6.47
2019-03-05T04:56:55.275Z,6.21
2019-03-05T04:57:55.379Z,6.28
2019-03-05T04:58:55.466Z,6.28
2019-03-05T04:59:55.584Z,6.48
2019-03-05T05:00:55.673Z,6.48
2019-03-05T05:01:55.760Z,6.56
2019-03-05T05:02:58.345Z,6.66
2019-03-05T05:03:55.938Z,6.63
2019-03-05T05:04:56.029Z,6.61
2019-03-05T05:05:56.118Z,6.73
2019-03-05T05:06:56.207Z,6.71
2019-03-05T05:07:56.295Z,6.72
2019-03-05T05:08:56.385Z,6.81
2019-03-05T05:09:56.482Z,6.79
2019-03-05T05:10:56.566Z,6.81
2019-03-05T05:11:56.658Z,6.84
2019-03-05T05:12:56.745Z,6.79
2019-03-05T05:13:56.850Z,6.76
2019-03-05T05:14:56.957Z,6.79
2019-03-05T05:15:57.047Z,6.86
2019-03-05T05:16:57.134Z,6.73
2019-03-05T05:17:57.223Z,6.81
2019-03-05T05:18:57.316Z,6.73
2019-03-05T05:19:57.405Z,6.83
2019-03-05T05:20:57.525Z,6.79
2019-03-05T05:21:57.585Z,6.72
2019-03-05T05:22:57.701Z,6.87
2019-03-05T05:23:57.782Z,6.76
2019-03-05T05:24:57.872Z,6.73
2019-03-05T05:25:57.960Z,6.71
2019-03-05T05:26:58.050Z,6.63
2019-03-05T05:27:58.139Z,6.48
2019-03-05T05:28:58.227Z,6.51
2019-03-05T05:29:58.316Z,6.54
2019-03-05T05:30:58.404Z,6.68
2019-03-05T05:31:58.568Z,6.63
2019-03-05T05:32:58.580Z,6.62
2019-03-05T05:33:58.674Z,6.63
2019-03-05T05:34:58.767Z,6.68
2019-03-05T05:35:58.871Z,6.68
2019-03-05T05:36:58.925Z,6.77
2019-03-05T05:37:59.017Z,6.76
2019-03-05T05:38:59.107Z,6.63
2019-03-05T05:39:59.193Z,6.63
2019-03-05T05:40:59.282Z,6.63
2019-03-05T05:41:59.366Z,6.69
2019-03-05T05:42:59.454Z,6.62
2019-03-05T05:43:59.535Z,6.59
2019-03-05T05:44:59.638Z,6.61
2019-03-05T05:45:59.719Z,6.63
2019-03-05T05:46:59.808Z,6.66
2019-03-05T05:47:59.901Z,6.59
2019-03-05T05:48:59.989Z,6.62
2019-03-05T05:50:00.105Z,6.63
2019-03-05T05:51:00.168Z,6.44
2019-03-05T05:52:00.254Z,6.58
2019-03-05T05:53:00.353Z,6.65
2019-03-05T05:54:00.433Z,6.56
2019-03-05T05:55:00.522Z,6.63
2019-03-05T05:56:00.745Z,6.66
2019-03-05T05:57:00.711Z,6.53
2019-03-05T05:58:00.799Z,6.56
2019-03-05T05:59:00.946Z,6.61
2019-03-05T06:00:00.969Z,6.65
2019-03-05T06:01:01.060Z,6.68
2019-03-05T06:02:01.149Z,6.72
2019-03-05T06:03:01.242Z,6.65
2019-03-05T06:04:01.327Z,6.76
2019-03-05T06:05:01.416Z,6.76
2019-03-05T06:06:01.506Z,6.76
2019-03-05T06:07:01.623Z,6.76
2019-03-05T06:08:01.698Z,6.87
2019-03-05T06:09:01.790Z,6.94
2019-03-05T06:10:01.882Z,6.95
2019-03-05T06:11:01.969Z,7.05
2019-03-05T06:12:02.059Z,7.15
2019-03-05T06:13:02.202Z,7.07
2019-03-05T06:14:02.283Z,7.12
2019-03-05T06:15:02.416Z,7.05
2019-03-05T06:16:02.461Z,7.08
2019-03-05T06:17:02.529Z,7.15
2019-03-05T06:18:02.608Z,7.12
2019-03-05T06:19:02.700Z,7.17
2019-03-05T06:20:02.789Z,7.15
2019-03-05T06:21:02.877Z,7.13
2019-03-05T06:22:02.976Z,7.15
2019-03-05T06:23:03.039Z,7.15
2019-03-05T06:24:03.160Z,7.23
2019-03-05T06:25:03.273Z,7.24
2019-03-05T06:26:03.337Z,7.12
2019-03-05T06:27:03.426Z,7.04
2019-03-05T06:28:03.627Z,7.22
2019-03-05T06:29:03.668Z,7.23
2019-03-05T06:30:03.683Z,7.32
2019-03-05T06:31:03.842Z,7.27
2019-03-05T06:32:03.806Z,7.35
2019-03-05T06:33:03.895Z,7.35
2019-03-05T06:34:03.985Z,7.38
2019-03-05T06:35:04.074Z,7.27
2019-03-05T06:36:04.165Z,7.24
2019-03-05T06:37:04.257Z,7.34
2019-03-05T06:38:04.347Z,7.37
2019-03-05T06:39:04.435Z,7.38
2019-03-05T06:40:04.524Z,7.37
2019-03-05T06:41:04.620Z,7.32
2019-03-05T06:42:04.704Z,7.37
2019-03-05T06:43:04.794Z,7.38
2019-03-05T06:44:04.952Z,7.40
2019-03-05T06:45:04.998Z,7.53
2019-03-05T06:46:05.062Z,7.42
2019-03-05T06:47:05.145Z,7.55
2019-03-05T06:48:05.236Z,7.67
2019-03-05T06:49:05.326Z,7.71
2019-03-05T06:50:05.417Z,7.62
2019-03-05T06:51:05.512Z,7.55
2019-03-05T06:52:05.638Z,7.53
2019-03-05T06:53:05.680Z,7.55
2019-03-05T06:54:05.769Z,7.52
2019-03-05T06:55:05.867Z,7.63
2019-03-05T06:56:05.965Z,7.67
2019-03-05T06:57:06.053Z,7.71
2019-03-05T06:58:06.138Z,7.71
2019-03-05T06:59:06.229Z,7.59
2019-03-05T07:00:06.318Z,7.69
2019-03-05T07:01:06.409Z,7.69
2019-03-05T07:02:06.496Z,7.55
2019-03-05T07:03:06.589Z,7.67
2019-03-05T07:04:06.675Z,7.75
2019-03-05T07:05:06.771Z,7.50
2019-03-05T07:06:06.859Z,7.49
2019-03-05T07:07:06.938Z,7.56
2019-03-05T07:08:07.022Z,7.66
2019-03-05T07:09:07.110Z,7.63
2019-03-05T07:10:07.197Z,7.72
2019-03-05T07:11:07.287Z,7.77
2019-03-05T07:12:07.376Z,7.84
2019-03-05T07:13:07.464Z,7.89
2019-03-05T07:14:07.587Z,7.82
2019-03-05T07:15:07.651Z,7.97
2019-03-05T07:16:07.760Z,7.75
2019-03-05T07:17:07.851Z,7.67
2019-03-05T07:18:07.945Z,7.62
2019-03-05T07:19:08.032Z,7.66
2019-03-05T07:20:08.122Z,7.81
2019-03-05T07:21:08.212Z,7.77
2019-03-05T07:22:08.303Z,7.78
2019-03-05T07:23:08.389Z,7.87
2019-03-05T07:24:08.486Z,7.99
2019-03-05T07:25:08.577Z,7.93
2019-03-05T07:26:08.665Z,7.84
2019-03-05T07:27:08.755Z,7.81
2019-03-05T07:28:08.882Z,7.93
2019-03-05T07:29:08.958Z,7.97
2019-03-05T07:30:09.039Z,8.02
2019-03-05T07:31:09.133Z,8.08
2019-03-05T07:32:09.221Z,7.96
2019-03-05T07:33:09.311Z,8.00
2019-03-05T07:34:09.418Z,8.02
2019-03-05T07:35:09.547Z,8.15
2019-03-05T07:36:09.627Z,8.14
2019-03-05T07:37:09.692Z,8.11
2019-03-05T07:38:09.786Z,8.18
2019-03-05T07:39:09.875Z,8.35
2019-03-05T07:40:09.966Z,8.25
2019-03-05T07:41:10.055Z,8.40
2019-03-05T07:42:10.144Z,8.55
2019-03-05T07:43:10.239Z,8.53
2019-03-05T07:44:10.327Z,8.60
2019-03-05T07:45:10.417Z,8.65
2019-03-05T07:46:10.507Z,8.53
2019-03-05T07:47:10.603Z,8.62
2019-03-05T07:48:10.698Z,8.66
2019-03-05T07:49:10.788Z,8.58
2019-03-05T07:50:10.878Z,8.55
2019-03-05T07:51:10.971Z,8.58
2019-03-05T07:52:11.050Z,8.63
2019-03-05T07:53:11.152Z,8.73
2019-03-05T07:54:11.239Z,8.73
2019-03-05T07:55:13.914Z,8.73
2019-03-05T07:56:11.425Z,8.63
2019-03-05T07:57:11.593Z,8.81
2019-03-05T07:58:11.626Z,8.72
2019-03-05T07:59:11.697Z,8.69
2019-03-05T08:00:11.784Z,8.73
2019-03-05T08:01:21.918Z,8.86
2019-03-05T08:02:11.965Z,8.69
2019-03-05T08:03:12.055Z,8.76
2019-03-05T08:04:12.143Z,8.69
2019-03-05T08:05:12.233Z,8.72
2019-03-05T08:06:12.325Z,8.75
2019-03-05T08:07:12.417Z,8.87
2019-03-05T08:08:12.506Z,8.58
2019-03-05T08:09:12.595Z,8.57
2019-03-05T08:10:12.685Z,8.57
2019-03-05T08:11:12.780Z,8.54
2019-03-05T08:12:12.892Z,8.53
2019-03-05T08:13:13.040Z,8.45
2019-03-05T08:14:13.079Z,8.51
2019-03-05T08:15:13.172Z,8.45
2019-03-05T08:16:13.260Z,8.42
2019-03-05T08:17:13.355Z,8.51
2019-03-05T08:18:13.453Z,8.54
2019-03-05T08:19:13.562Z,8.54
2019-03-05T08:20:13.627Z,8.40
2019-03-05T08:21:13.727Z,8.28
2019-03-05T08:22:13.821Z,8.40
2019-03-05T08:23:13.907Z,8.39
2019-03-05T08:24:13.996Z,8.35
2019-03-05T08:25:14.101Z,8.42
2019-03-05T08:26:14.192Z,8.42
2019-03-05T08:27:14.282Z,8.39
2019-03-05T08:28:14.376Z,8.50
2019-03-05T08:29:14.457Z,8.53
2019-03-05T08:30:15.049Z,8.58
2019-03-05T08:31:14.646Z,8.53
2019-03-05T08:32:14.735Z,8.51
2019-03-05T08:33:14.824Z,8.55
2019-03-05T08:34:14.961Z,8.55
2019-03-05T08:35:14.990Z,8.32
2019-03-05T08:36:15.081Z,8.15
2019-03-05T08:37:15.173Z,8.17
2019-03-05T08:38:15.256Z,8.10
2019-03-05T08:39:15.353Z,8.28
2019-03-05T08:40:15.444Z,8.26
2019-03-05T08:41:15.610Z,8.36
2019-03-05T08:42:15.662Z,8.26
2019-03-05T08:43:15.715Z,8.26
2019-03-05T08:44:15.806Z,8.30
2019-03-05T08:45:15.896Z,8.21
2019-03-05T08:46:15.987Z,8.29
2019-03-05T08:47:16.076Z,8.11
2019-03-05T08:48:16.171Z,8.10
2019-03-05T08:49:17.980Z,8.25
2019-03-05T08:50:16.350Z,8.33
2019-03-05T08:51:16.438Z,8.32
2019-03-05T08:52:16.528Z,8.33
2019-03-05T08:53:16.608Z,8.42
2019-03-05T08:54:16.699Z,8.42
2019-03-05T08:55:16.784Z,8.40
2019-03-05T08:56:16.879Z,8.47
2019-03-05T08:57:16.968Z,8.51
2019-03-05T08:58:17.079Z,8.37
2019-03-05T08:59:17.165Z,8.44
2019-03-05T09:00:17.256Z,8.40
2019-03-05T09:01:17.345Z,8.45
2019-03-05T09:02:17.436Z,8.57
2019-03-05T09:03:17.526Z,8.47
2019-03-05T09:04:17.620Z,8.40
2019-03-05T09:05:17.683Z,8.50
2019-03-05T09:06:17.773Z,8.36
2019-03-05T09:07:17.862Z,8.40
2019-03-05T09:08:17.956Z,8.48
2019-03-05T09:09:18.044Z,8.58
2019-03-05T09:10:18.138Z,8.66
2019-03-05T09:11:18.227Z,8.44
2019-03-05T09:12:18.320Z,8.32
2019-03-05T09:13:18.406Z,8.20
2019-03-05T09:14:18.497Z,8.22
2019-03-05T09:15:18.591Z,8.11
2019-03-05T09:16:18.678Z,8.18
2019-03-05T09:17:18.768Z,8.00
2019-03-05T09:18:18.860Z,8.12
2019-03-05T09:19:18.939Z,8.03
2019-03-05T09:20:19.056Z,8.00
2019-03-05T09:21:19.117Z,8.11
2019-03-05T09:22:19.232Z,8.15
2019-03-05T09:23:19.311Z,7.85
2019-03-05T09:24:19.402Z,7.92
2019-03-05T09:25:19.516Z,7.90
2019-03-05T09:26:19.581Z,7.93
2019-03-05T09:27:19.667Z,7.90
2019-03-05T09:28:19.759Z,7.92
2019-03-05T09:29:19.850Z,7.97
2019-03-05T09:30:19.940Z,7.89
2019-03-05T09:31:20.029Z,7.97
2019-03-05T09:32:20.120Z,7.90
2019-03-05T09:33:20.218Z,7.79
2019-03-05T09:34:20.301Z,7.69
2019-03-05T09:35:20.396Z,7.81
2019-03-05T09:36:20.479Z,7.82
2019-03-05T09:37:20.569Z,7.82
2019-03-05T09:38:20.658Z,7.96
2019-03-05T09:39:20.751Z,7.94
2019-03-05T09:40:20.850Z,7.79
2019-03-05T09:41:20.931Z,7.77
2019-03-05T09:42:21.022Z,7.75
2019-03-05T09:43:21.107Z,7.81
2019-03-05T09:44:21.196Z,7.81
2019-03-05T09:45:21.287Z,7.84
2019-03-05T09:46:21.378Z,7.74
2019-03-05T09:47:21.474Z,7.59
2019-03-05T09:48:21.613Z,7.67
2019-03-05T09:49:21.699Z,7.82
2019-03-05T09:50:21.788Z,7.60
2019-03-05T09:51:21.878Z,7.67
2019-03-05T09:52:21.966Z,7.69
2019-03-05T09:53:22.058Z,7.78
2019-03-05T09:54:22.147Z,7.92
2019-03-05T09:55:22.237Z,7.87
2019-03-05T09:56:22.327Z,7.94
2019-03-05T09:57:22.420Z,7.97
2019-03-05T09:58:22.509Z,8.07
2019-03-05T09:59:22.602Z,8.12
2019-03-05T10:00:22.690Z,8.07
2019-03-05T10:01:22.780Z,7.89
2019-03-05T10:02:22.878Z,7.94
2019-03-05T10:03:22.983Z,8.03
2019-03-05T10:04:23.075Z,8.07
2019-03-05T10:05:23.164Z,8.03
2019-03-05T10:06:23.251Z,8.12
2019-03-05T10:07:23.341Z,8.10
2019-03-05T10:08:31.879Z,8.12
2019-03-05T10:09:25.877Z,8.14
2019-03-05T10:10:23.640Z,8.17
2019-03-05T10:11:23.690Z,8.15
2019-03-05T10:12:23.776Z,8.20
2019-03-05T10:13:23.865Z,8.25
2019-03-05T10:14:23.956Z,8.25
2019-03-05T10:15:24.046Z,8.20
2019-03-05T10:16:24.136Z,8.18
2019-03-05T10:17:24.228Z,8.28
2019-03-05T10:18:24.317Z,8.29
2019-03-05T10:19:24.407Z,8.30
2019-03-05T10:20:24.497Z,8.33
2019-03-05T10:21:24.590Z,8.18
2019-03-05T10:22:24.679Z,8.15
2019-03-05T10:23:24.788Z,8.07
2019-03-05T10:24:24.874Z,8.12
2019-03-05T10:25:24.985Z,8.12
2019-03-05T10:26:25.063Z,8.15
2019-03-05T10:27:25.149Z,8.28
2019-03-05T10:28:25.238Z,8.33
2019-03-05T10:29:25.337Z,8.33
2019-03-05T10:30:25.447Z,8.33
2019-03-05T10:31:25.511Z,8.37
2019-03-05T10:32:25.659Z,8.47
2019-03-05T10:33:25.686Z,8.22
2019-03-05T10:34:25.767Z,8.35
2019-03-05T10:35:25.859Z,8.37
2019-03-05T10:36:25.945Z,8.17
2019-03-05T10:37:26.032Z,8.20
2019-03-05T10:38:26.119Z,8.21
2019-03-05T10:39:30.382Z,8.21
2019-03-05T10:40:26.303Z,8.25
2019-03-05T10:41:26.396Z,8.10
2019-03-05T10:42:26.481Z,8.10
2019-03-05T10:43:26.571Z,8.14
2019-03-05T10:44:26.664Z,8.08
2019-03-05T10:45:26.749Z,8.26
2019-03-05T10:46:26.861Z,8.22
2019-03-05T10:47:26.932Z,8.30
2019-03-05T10:48:27.026Z,8.17
2019-03-05T10:49:27.114Z,8.17
2019-03-05T10:50:27.202Z,8.25
2019-03-05T10:51:27.292Z,8.36
2019-03-05T10:52:27.383Z,8.32
2019-03-05T10:53:27.477Z,8.30
2019-03-05T10:54:27.622Z,8.35
2019-03-05T10:55:27.665Z,8.33
2019-03-05T10:56:27.754Z,8.51
2019-03-05T10:57:27.847Z,8.42
2019-03-05T10:58:33.877Z,8.39
2019-03-05T10:59:28.074Z,8.33
2019-03-05T11:00:28.122Z,8.39
2019-03-05T11:01:28.213Z,8.39
2019-03-05T11:02:28.303Z,8.45
2019-03-05T11:03:28.397Z,8.53
2019-03-05T11:04:28.487Z,8.54
2019-03-05T11:05:28.610Z,8.65
2019-03-05T11:06:28.664Z,8.55
2019-03-05T11:07:28.768Z,8.57
2019-03-05T11:08:28.883Z,8.50
2019-03-05T11:09:28.953Z,8.45
2019-03-05T11:10:29.031Z,8.51
2019-03-05T11:11:29.120Z,8.48
2019-03-05T11:12:29.211Z,8.54
2019-03-05T11:13:29.304Z,8.51
2019-03-05T11:14:29.393Z,8.69
2019-03-05T11:15:29.481Z,8.51
2019-03-05T11:16:31.063Z,8.57
2019-03-05T11:17:29.663Z,8.65
2019-03-05T11:18:30.157Z,8.51
2019-03-05T11:19:29.848Z,8.33
2019-03-05T11:20:29.943Z,8.45
2019-03-05T11:21:30.031Z,8.48
2019-03-05T11:22:30.120Z,8.53
2019-03-05T11:23:30.210Z,8.66
2019-03-05T11:24:30.305Z,8.63
2019-03-05T11:25:30.393Z,8.75
2019-03-05T11:26:30.484Z,8.62
2019-03-05T11:27:30.575Z,8.55
2019-03-05T11:28:30.666Z,8.65
2019-03-05T11:29:30.756Z,8.83
2019-03-05T11:30:36.077Z,8.99
2019-03-05T11:31:30.937Z,9.04
2019-03-05T11:32:31.026Z,9.23
2019-03-05T11:33:31.117Z,9.20
2019-03-05T11:34:31.208Z,9.40
2019-03-05T11:35:31.295Z,9.39
2019-03-05T11:36:31.387Z,9.49
2019-03-05T11:37:31.477Z,9.56
2019-03-05T11:38:31.570Z,9.57
2019-03-05T11:39:31.665Z,9.71
2019-03-05T11:42:03.432Z,9.70
2019-03-05T11:43:03.535Z,9.58
2019-03-05T11:44:03.629Z,9.71
2019-03-05T11:45:07.644Z,9.61
2019-03-05T11:46:03.780Z,9.71
2019-03-05T11:47:03.879Z,9.75
2019-03-05T11:48:03.967Z,9.71
2019-03-05T11:49:04.056Z,9.78
2019-03-05T11:50:04.150Z,9.86
2019-03-05T11:51:04.239Z,9.76
2019-03-05T11:52:04.332Z,9.94
2019-03-05T11:53:04.423Z,9.94
2019-03-05T11:54:04.517Z,10.06
2019-03-05T11:55:04.607Z,9.89
2019-03-05T11:56:04.701Z,9.58
2019-03-05T11:57:04.786Z,9.60
2019-03-05T11:58:04.882Z,9.75
2019-03-05T11:59:04.976Z,9.68
2019-03-05T12:00:05.064Z,9.76
2019-03-05T12:01:05.153Z,9.71
2019-03-05T12:02:05.247Z,9.81
2019-03-05T12:03:05.339Z,9.81
2019-03-05T12:04:05.432Z,9.86
2019-03-05T12:05:05.558Z,9.99
2019-03-05T12:06:05.627Z,10.07
2019-03-05T12:07:05.712Z,10.28
2019-03-05T12:08:05.807Z,10.46
2019-03-05T12:09:05.897Z,10.37
2019-03-05T12:10:05.989Z,10.39
2019-03-05T12:11:06.081Z,10.43
2019-03-05T12:12:06.173Z,10.52
2019-03-05T12:13:06.264Z,10.53
2019-03-05T12:14:06.358Z,10.51
2019-03-05T12:15:06.448Z,10.58
2019-03-05T12:16:06.540Z,10.44
2019-03-05T12:17:06.631Z,10.46
2019-03-05T12:18:06.726Z,10.47
2019-03-05T12:19:06.819Z,10.33
2019-03-05T12:20:06.899Z,10.09
2019-03-05T12:21:06.993Z,10.21
2019-03-05T12:22:07.085Z,10.26
2019-03-05T12:23:10.469Z,10.04
2019-03-05T12:24:07.276Z,10.10
2019-03-05T12:25:07.368Z,9.88
2019-03-05T12:26:07.460Z,9.96
2019-03-05T12:27:07.609Z,9.86
2019-03-05T12:28:10.629Z,9.97
2019-03-05T12:29:07.740Z,10.06
2019-03-05T12:30:07.836Z,10.14
2019-03-05T12:31:07.928Z,10.18
2019-03-05T12:32:08.019Z,10.28
2019-03-05T12:33:08.117Z,10.36
2019-03-05T12:34:08.210Z,10.37
2019-03-05T12:35:08.350Z,10.34
2019-03-05T12:36:08.445Z,10.46
2019-03-05T12:37:08.535Z,10.44
2019-03-05T12:38:08.633Z,10.37
2019-03-05T12:39:08.727Z,10.44
2019-03-05T12:40:08.823Z,10.43
2019-03-05T12:41:08.912Z,10.01
2019-03-05T12:42:09.012Z,10.06
2019-03-05T12:43:09.092Z,10.18
2019-03-05T12:44:09.191Z,10.39
2019-03-05T12:45:09.287Z,10.60
2019-03-05T12:46:10.320Z,10.68
2019-03-05T12:47:09.413Z,10.81
2019-03-05T12:48:09.508Z,11.02
2019-03-05T12:49:09.652Z,11.29
2019-03-05T12:50:09.745Z,11.49
2019-03-05T12:51:09.846Z,11.62
2019-03-05T12:52:09.935Z,11.74
2019-03-05T12:53:10.030Z,11.89
2019-03-05T12:54:10.126Z,12.08
2019-03-05T12:55:10.218Z,12.29
2019-03-05T12:56:10.315Z,12.34
2019-03-05T12:57:10.407Z,12.34
2019-03-05T12:58:10.498Z,12.33
2019-03-05T12:59:10.591Z,12.44
2019-03-05T13:00:10.683Z,12.23
2019-03-05T13:01:10.784Z,12.01
2019-03-05T13:02:10.874Z,11.75
2019-03-05T13:03:10.982Z,11.41
2019-03-05T13:04:11.080Z,11.36
2019-03-05T13:05:11.178Z,10.99
2019-03-05T13:06:11.267Z,10.26
2019-03-05T13:07:14.239Z,10.30
2019-03-05T13:08:11.461Z,10.24
2019-03-05T13:09:13.649Z,10.28
2019-03-05T13:10:11.664Z,10.28
2019-03-05T13:11:12.974Z,10.32
2019-03-05T13:12:11.854Z,10.07
2019-03-05T13:13:13.917Z,10.04
2019-03-05T13:14:12.393Z,10.18
2019-03-05T13:15:12.133Z,10.32
2019-03-05T13:16:13.960Z,10.34
2019-03-05T13:17:12.323Z,9.83
2019-03-05T13:18:14.172Z,9.60
2019-03-05T13:19:12.518Z,9.75
2019-03-05T13:20:12.613Z,9.86
2019-03-05T13:21:12.708Z,10.03